Time;durP1;ratioP1;P1;durP2;ratioP2;P2;SDS_P1;SDS_P2;PMS_P1;PMS_P2;Temp;Humidity;BMP_temperature;BMP_pressure;BME280_temperature;BME280_humidity;BME280_pressure;Samples;Min_cycle;Max_cycle;Signal;HPM_P1;HPM_P2
2022/12/07 00:02:24;;;;;;;10.65;6.03;;;23.00;90.50;;;;;;1956845;72;21127;-68
2022/12/07 00:04:56;;;;;;;8.10;4.95;;;23.00;90.60;;;;;;1951104;72;21128;-68
2022/12/07 00:07:26;;;;;;;7.83;4.75;;;23.10;90.50;;;;;;1947573;73;21094;-68
2022/12/07 00:09:57;;;;;;;9.68;4.92;;;23.10;90.30;;;;;;1934499;73;21587;-68
2022/12/07 00:12:29;;;;;;;9.05;4.85;;;23.10;90.40;;;;;;1930249;73;21099;-69
2022/12/07 00:15:00;;;;;;;8.30;4.67;;;23.10;90.20;;;;;;1926693;73;21248;-68
2022/12/07 00:17:31;;;;;;;9.40;5.08;;;23.10;90.40;;;;;;1935362;73;21212;-67
2022/12/07 00:20:02;;;;;;;8.53;4.58;;;23.20;90.10;;;;;;1876874;75;21192;-67
2022/12/07 00:22:33;;;;;;;7.72;4.47;;;23.30;90.30;;;;;;1920394;74;21147;-68
2022/12/07 00:25:04;;;;;;;7.42;4.65;;;23.30;89.90;;;;;;1889792;74;21144;-68
2022/12/07 00:27:35;;;;;;;8.70;4.83;;;23.30;89.40;;;;;;1945263;73;21676;-68
2022/12/07 00:30:08;;;;;;;8.23;4.72;;;23.30;89.50;;;;;;1946421;73;21150;-68
2022/12/07 00:32:39;;;;;;;8.78;4.17;;;23.30;89.50;;;;;;1895842;74;21234;-68
2022/12/07 00:35:10;;;;;;;7.15;4.20;;;23.30;89.20;;;;;;1945026;73;21041;-68
2022/12/07 00:37:41;;;;;;;8.20;4.47;;;23.30;89.40;;;;;;1930155;73;21574;-68
2022/12/07 00:40:12;;;;;;;7.70;4.30;;;23.40;89.50;;;;;;1930124;73;21126;-67
2022/12/07 00:42:44;;;;;;;9.08;4.37;;;23.40;89.00;;;;;;1876294;75;21644;-68
2022/12/07 00:45:15;;;;;;;7.25;3.87;;;23.40;89.00;;;;;;1864699;76;21209;-67
2022/12/07 00:47:46;;;;;;;8.55;4.87;;;23.50;88.50;;;;;;1876495;75;21189;-67
2022/12/07 00:50:17;;;;;;;6.55;4.10;;;23.50;88.60;;;;;;1882475;75;21147;-67
2022/12/07 00:52:51;;;;;;;14.98;5.35;;;23.60;88.30;;;;;;1880604;75;21661;-68
2022/12/07 00:55:22;;;;;;;7.67;3.77;;;23.60;88.00;;;;;;1894554;74;21185;-68
2022/12/07 00:57:52;;;;;;;9.48;5.55;;;23.70;87.60;;;;;;1914627;74;21099;-69
2022/12/07 01:00:29;;;;;;;8.30;4.62;;;23.70;87.70;;;;;;1909298;74;21084;-68
2022/12/07 01:02:59;;;;;;;7.97;3.77;;;23.70;87.50;;;;;;1890384;75;21141;-69
2022/12/07 01:05:32;;;;;;;6.08;3.80;;;23.80;87.50;;;;;;1912819;74;21731;-68
2022/12/07 01:08:03;;;;;;;8.25;4.92;;;23.80;87.30;;;;;;1909467;74;21124;-69
2022/12/07 01:10:33;;;;;;;8.95;4.00;;;23.80;87.40;;;;;;1913833;74;21209;-68
2022/12/07 01:13:05;;;;;;;21.97;5.22;;;23.90;87.20;;;;;;1897738;75;21122;-69
2022/12/07 01:15:37;;;;;;;9.35;4.30;;;23.90;87.00;;;;;;1874427;75;21060;-69
2022/12/07 01:18:08;;;;;;;7.70;3.83;;;23.90;87.20;;;;;;1898446;74;21610;-69
2022/12/07 01:20:40;;;;;;;4.50;3.22;;;24.00;86.70;;;;;;1906496;74;21137;-69
2022/12/07 01:23:13;;;;;;;7.03;3.75;;;24.00;86.40;;;;;;1907267;74;21910;-68
2022/12/07 01:25:45;;;;;;;6.40;2.87;;;24.00;86.60;;;;;;1855866;75;21228;-70
2022/12/07 01:28:20;;;;;;;6.72;3.10;;;24.10;86.30;;;;;;1904054;74;21122;-70
2022/12/07 01:31:10;;;;;;;4.45;2.77;;;24.10;86.40;;;;;;1905016;74;21127;-69
2022/12/07 01:33:41;;;;;;;8.55;3.25;;;24.20;86.20;;;;;;1906318;74;21185;-68
2022/12/07 01:36:24;;;;;;;5.17;3.00;;;24.20;85.90;;;;;;1907968;74;21071;-68
2022/12/07 01:39:01;;;;;;;3.60;2.50;;;24.40;85.80;;;;;;1857499;75;21194;-68
2022/12/07 01:41:34;;;;;;;8.68;3.05;;;24.40;85.40;;;;;;1892215;74;21200;-68
2022/12/07 01:44:35;;;;;;;4.17;2.40;;;24.50;85.20;;;;;;1895834;74;21068;-69
2022/12/07 01:47:05;;;;;;;3.80;2.00;;;24.50;84.40;;;;;;1897305;75;21166;-69
2022/12/07 01:49:38;;;;;;;5.33;2.87;;;24.50;84.20;;;;;;1868996;75;21146;-68
2022/12/07 01:52:23;;;;;;;4.12;2.10;;;24.60;84.40;;;;;;1951888;72;21173;-69
2022/12/07 01:55:14;;;;;;;5.72;2.80;;;24.60;84.10;;;;;;1924964;73;21643;-68
2022/12/07 01:57:51;;;;;;;5.83;2.67;;;24.60;83.40;;;;;;1843628;76;21597;-68
2022/12/07 02:00:22;;;;;;;5.55;1.80;;;24.60;83.80;;;;;;1853664;76;21096;-69
2022/12/07 02:03:01;;;;;;;4.40;2.22;;;24.70;83.40;;;;;;1878305;74;22247;-69
2022/12/07 02:05:33;;;;;;;4.67;2.50;;;24.70;83.50;;;;;;1883627;74;21063;-68
2022/12/07 02:08:04;;;;;;;4.72;3.17;;;24.70;83.40;;;;;;1844325;76;21060;-68
2022/12/07 02:10:36;;;;;;;5.60;2.65;;;24.70;83.60;;;;;;1821732;77;21181;-70
2022/12/07 02:13:19;;;;;;;3.65;2.45;;;24.80;83.60;;;;;;1846415;76;21116;-69
2022/12/07 02:15:52;;;;;;;3.65;2.30;;;24.80;83.60;;;;;;1854283;76;21171;-69
2022/12/07 02:18:49;;;;;;;3.77;2.40;;;24.80;83.50;;;;;;1837653;75;21828;-68
2022/12/07 02:21:20;;;;;;;;;;;24.80;83.70;;;;;;1872583;75;21255;-67
2022/12/07 02:24:13;;;;;;;4.97;3.20;;;24.90;83.50;;;;;;1860534;76;20170;-67
2022/12/07 02:27:02;;;;;;;5.03;2.58;;;25.00;83.60;;;;;;1850699;76;21623;-69
2022/12/07 02:29:53;;;;;;;6.00;3.02;;;25.00;83.20;;;;;;1911835;74;21118;-68
2022/12/07 02:32:26;;;;;;;3.62;1.95;;;25.00;83.00;;;;;;1840630;76;21197;-69
2022/12/07 02:35:09;;;;;;;5.70;3.00;;;25.10;82.80;;;;;;1877222;74;21167;-69
2022/12/07 02:38:01;;;;;;;3.60;2.30;;;25.10;82.80;;;;;;1885794;75;21416;-68
2022/12/07 02:40:40;;;;;;;7.25;3.08;;;25.20;82.80;;;;;;1881601;74;21976;-67
2022/12/07 02:43:19;;;;;;;7.40;2.58;;;25.20;82.50;;;;;;1871824;75;21198;-70
2022/12/07 02:45:53;;;;;;;5.60;1.50;;;25.30;82.40;;;;;;1848055;76;21088;-68
2022/12/07 02:48:25;;;;;;;3.65;2.35;;;25.30;81.70;;;;;;1860904;76;21477;-69
2022/12/07 02:50:56;;;;;;;3.80;1.98;;;25.40;81.60;;;;;;1885438;74;21179;-70
2022/12/07 02:53:32;;;;;;;4.78;2.00;;;25.40;81.70;;;;;;1877719;75;21249;-70
2022/12/07 02:56:05;;;;;;;5.12;2.45;;;25.50;81.50;;;;;;1851356;76;21242;-69
2022/12/07 02:58:44;;;;;;;5.00;2.60;;;25.50;81.80;;;;;;1842849;76;21186;-71
2022/12/07 03:01:35;;;;;;;6.58;2.00;;;25.60;81.70;;;;;;1835149;77;22201;-70
2022/12/07 03:04:11;;;;;;;2.72;1.47;;;25.70;81.40;;;;;;1882585;74;21163;-69
2022/12/07 03:06:45;;;;;;;2.83;1.70;;;25.90;81.20;;;;;;1872042;74;21167;-72
2022/12/07 03:09:20;;;;;;;4.50;1.80;;;25.90;80.70;;;;;;1884812;74;21697;-69
2022/12/07 03:11:54;;;;;;;5.45;2.37;;;26.00;80.70;;;;;;1874763;74;21156;-69
2022/12/07 03:14:27;;;;;;;5.50;2.40;;;26.10;80.50;;;;;;1885594;74;21143;-68
2022/12/07 03:17:13;;;;;;;5.60;2.80;;;26.20;80.30;;;;;;1849564;76;21150;-68
2022/12/07 03:19:46;;;;;;;3.60;1.93;;;26.30;80.60;;;;;;1884747;74;21619;-69
2022/12/07 03:22:18;;;;;;;4.25;1.90;;;26.30;80.00;;;;;;1887633;74;21640;-69
2022/12/07 03:24:54;;;;;;;5.28;2.20;;;26.40;79.70;;;;;;1874564;74;21197;-68
2022/12/07 03:27:33;;;;;;;2.87;1.70;;;26.40;79.30;;;;;;1906804;74;21131;-69
2022/12/07 03:30:12;;;;;;;4.78;1.90;;;26.40;80.00;;;;;;1912193;73;21253;-69
2022/12/07 03:33:00;;;;;;;3.27;1.87;;;26.40;79.30;;;;;;1883881;74;21245;-70
2022/12/07 03:35:20;;;;;;;3.37;1.98;;;26.50;79.40;;;;;;1846938;76;21161;-69
2022/12/07 03:38:00;;;;;;;4.75;2.00;;;26.60;79.30;;;;;;1911646;74;21157;-69
2022/12/07 03:40:40;;;;;;;2.72;1.50;;;26.70;78.60;;;;;;1855702;76;21611;-69
2022/12/07 03:43:12;;;;;;;3.15;1.98;;;26.80;78.40;;;;;;1837011;76;21625;-68
2022/12/07 03:45:46;;;;;;;2.77;1.82;;;26.80;78.00;;;;;;1909092;74;21120;-69
2022/12/07 03:48:31;;;;;;;2.77;1.60;;;26.90;78.30;;;;;;1873226;74;21125;-69
2022/12/07 03:51:08;;;;;;;5.03;1.75;;;27.00;78.10;;;;;;1882678;74;21825;-69
2022/12/07 03:53:44;;;;;;;2.25;1.50;;;27.10;78.00;;;;;;1892408;74;21581;-69
2022/12/07 03:56:16;;;;;;;3.67;2.00;;;27.20;77.80;;;;;;1869983;75;21148;-68
2022/12/07 03:58:47;;;;;;;4.33;2.00;;;27.30;77.90;;;;;;1901501;74;21226;-70
2022/12/07 04:01:19;;;;;;;3.62;1.70;;;27.40;77.60;;;;;;1848761;76;21614;-71
2022/12/07 04:03:52;;;;;;;5.12;2.00;;;27.50;76.60;;;;;;1881288;75;21137;-71
2022/12/07 04:06:25;;;;;;;4.90;1.50;;;27.60;76.70;;;;;;1886197;75;21177;-69
2022/12/07 04:08:55;;;;;;;2.40;1.37;;;27.60;76.90;;;;;;1859109;76;21563;-70
2022/12/07 04:11:26;;;;;;;3.47;1.50;;;27.70;76.40;;;;;;1882352;75;21129;-69
2022/12/07 04:16:52;;;;;;;3.65;1.40;;;27.90;76.00;;;;;;1895931;75;21626;-69
2022/12/07 04:19:26;;;;;;;3.00;1.60;;;28.00;75.40;;;;;;1864232;75;21154;-70
2022/12/07 04:21:58;;;;;;;5.08;2.02;;;28.10;75.80;;;;;;1836281;76;21071;-70
2022/12/07 04:24:29;;;;;;;5.20;1.90;;;28.20;75.10;;;;;;1849624;75;21140;-68
2022/12/07 04:27:00;;;;;;;3.52;1.32;;;28.20;75.10;;;;;;1892261;74;21588;-69
2022/12/07 04:29:31;;;;;;;4.83;1.67;;;28.20;75.20;;;;;;1882315;74;21232;-69
2022/12/07 04:32:03;;;;;;;5.00;1.20;;;28.20;75.30;;;;;;1886572;74;21701;-68
2022/12/07 04:34:38;;;;;;;3.10;1.40;;;28.20;74.40;;;;;;1882471;74;21162;-68
2022/12/07 04:37:09;;;;;;;2.35;1.20;;;28.30;74.80;;;;;;1869258;75;21263;-70
2022/12/07 04:39:40;;;;;;;6.10;1.70;;;28.50;74.90;;;;;;1890239;74;21092;-70
2022/12/07 04:42:12;;;;;;;3.87;1.75;;;28.60;73.90;;;;;;1890751;74;21154;-68
2022/12/07 04:44:43;;;;;;;4.72;2.30;;;28.70;74.20;;;;;;1898936;74;21160;-68
2022/12/07 04:47:14;;;;;;;4.42;1.52;;;28.70;73.70;;;;;;1848129;76;21159;-68
2022/12/07 04:49:48;;;;;;;5.50;1.75;;;28.80;73.70;;;;;;1877185;75;22183;-70
2022/12/07 04:52:22;;;;;;;3.05;1.67;;;28.70;73.10;;;;;;1877266;75;21223;-69
2022/12/07 04:54:55;;;;;;;2.50;1.60;;;28.80;72.80;;;;;;1884198;75;21757;-69
2022/12/07 04:57:29;;;;;;;2.77;1.70;;;28.80;72.80;;;;;;1876573;74;21406;-69
2022/12/07 04:59:59;;;;;;;3.72;1.82;;;28.90;73.00;;;;;;1885105;75;21115;-68
2022/12/07 05:02:31;;;;;;;2.17;1.32;;;29.00;73.20;;;;;;1888209;74;21087;-71
2022/12/07 05:05:02;;;;;;;2.70;1.65;;;29.10;72.10;;;;;;1888953;74;21123;-68
2022/12/07 05:07:33;;;;;;;2.98;1.40;;;29.20;72.00;;;;;;1840322;76;21176;-69
2022/12/07 05:10:25;;;;;;;2.80;1.60;;;29.20;72.70;;;;;;1876096;75;21155;-68
2022/12/07 05:12:59;;;;;;;3.98;1.60;;;29.20;71.90;;;;;;1809013;78;21208;-69
2022/12/07 05:15:30;;;;;;;5.97;1.77;;;29.30;72.50;;;;;;1875194;75;21102;-69
2022/12/07 05:18:01;;;;;;;5.22;1.75;;;29.30;72.50;;;;;;1828384;76;21530;-69
2022/12/07 05:20:32;;;;;;;2.92;2.02;;;29.30;72.20;;;;;;1865233;75;21192;-69
2022/12/07 05:23:04;;;;;;;4.15;2.27;;;29.40;71.20;;;;;;1859157;75;21301;-70
2022/12/07 05:25:35;;;;;;;5.67;2.17;;;29.40;71.70;;;;;;1856898;75;21633;-71
2022/12/07 05:28:07;;;;;;;5.22;2.00;;;29.40;71.20;;;;;;1864780;75;21126;-69
2022/12/07 05:30:39;;;;;;;3.72;1.60;;;29.40;71.20;;;;;;1865919;75;21851;-68
2022/12/07 05:33:10;;;;;;;2.70;1.50;;;29.60;71.70;;;;;;1863610;75;21197;-69
2022/12/07 05:35:41;;;;;;;5.33;1.85;;;29.70;71.30;;;;;;1873498;75;21122;-70
2022/12/07 05:38:15;;;;;;;3.70;1.70;;;29.80;70.40;;;;;;1855667;75;21115;-71
2022/12/07 05:40:47;;;;;;;3.98;1.82;;;29.80;70.40;;;;;;1859722;75;21154;-68
2022/12/07 05:43:18;;;;;;;3.02;2.05;;;29.80;70.10;;;;;;1870593;75;21193;-67
2022/12/07 05:45:50;;;;;;;2.52;1.60;;;29.90;70.30;;;;;;1864416;76;21154;-68
2022/12/07 05:48:24;;;;;;;2.20;1.50;;;29.90;70.00;;;;;;1853407;75;21091;-69
2022/12/07 05:50:56;;;;;;;5.37;1.55;;;30.00;70.20;;;;;;1861515;75;21224;-68
2022/12/07 05:53:29;;;;;;;3.42;1.47;;;29.90;69.70;;;;;;1865298;75;21216;-70
2022/12/07 05:56:02;;;;;;;4.97;1.90;;;29.90;70.00;;;;;;1869740;75;22208;-69
2022/12/07 06:01:22;;;;;;;4.37;1.50;;;30.00;70.60;;;;;;1833658;77;21700;-71
2022/12/07 06:03:53;;;;;;;2.85;1.30;;;29.90;69.70;;;;;;1867991;75;21150;-70
2022/12/07 06:06:24;;;;;;;4.30;1.62;;;29.90;69.90;;;;;;1864705;75;21138;-69
2022/12/07 06:08:56;;;;;;;2.87;1.55;;;29.90;69.90;;;;;;1866130;75;21162;-71
2022/12/07 06:14:15;;;;;;;3.02;1.57;;;30.00;70.00;;;;;;1859933;75;21138;-69
2022/12/07 06:16:46;;;;;;;3.00;1.60;;;30.00;69.30;;;;;;1873864;75;21201;-68
2022/12/07 06:19:17;;;;;;;2.33;1.40;;;30.00;69.60;;;;;;1852729;75;21166;-69
2022/12/07 06:21:49;;;;;;;3.12;1.40;;;30.00;69.00;;;;;;1866149;76;21166;-69
2022/12/07 06:24:23;;;;;;;3.58;1.32;;;30.10;69.30;;;;;;1864845;76;21208;-71
2022/12/07 06:26:54;;;;;;;5.33;1.50;;;30.10;69.00;;;;;;1833368;77;21152;-70
2022/12/07 06:29:25;;;;;;;2.65;1.55;;;30.10;69.30;;;;;;1873013;75;21113;-68
2022/12/07 06:31:56;;;;;;;1.98;1.15;;;30.10;68.90;;;;;;1859215;77;21150;-69
2022/12/07 06:34:28;;;;;;;2.12;1.20;;;30.10;69.10;;;;;;1859841;75;21653;-69
2022/12/07 06:37:00;;;;;;;4.22;1.45;;;30.10;69.00;;;;;;1845493;75;21236;-70
2022/12/07 06:39:34;;;;;;;2.17;1.32;;;30.10;68.70;;;;;;1828560;76;21173;-70
2022/12/07 06:42:05;;;;;;;3.87;1.10;;;30.10;68.90;;;;;;1861126;75;21267;-70
2022/12/07 06:44:36;;;;;;;3.58;1.52;;;30.10;68.70;;;;;;1858337;75;21100;-70
2022/12/07 06:47:09;;;;;;;2.90;1.20;;;30.10;69.00;;;;;;1855509;75;21142;-69
2022/12/07 06:49:41;;;;;;;3.75;1.20;;;30.10;69.50;;;;;;1859960;75;21134;-71
2022/12/07 06:52:12;;;;;;;2.17;1.17;;;30.10;69.50;;;;;;1864692;75;21177;-71
2022/12/07 06:54:44;;;;;;;2.37;1.20;;;30.10;69.40;;;;;;1871625;76;21251;-71
2022/12/07 06:57:15;;;;;;;3.35;1.30;;;30.10;69.20;;;;;;1862346;75;21181;-71
2022/12/07 06:59:46;;;;;;;1.95;1.02;;;30.20;69.10;;;;;;1866097;75;21102;-70
2022/12/07 07:02:17;;;;;;;4.25;1.17;;;30.30;68.80;;;;;;1854968;76;21180;-70
2022/12/07 07:04:47;;;;;;;2.45;1.12;;;30.40;68.00;;;;;;1864778;75;22265;-69
2022/12/07 07:07:19;;;;;;;2.20;1.00;;;30.40;67.80;;;;;;1856514;76;21142;-70
2022/12/07 07:09:51;;;;;;;2.58;1.00;;;30.40;67.60;;;;;;1862229;76;21150;-70
2022/12/07 07:12:22;;;;;;;3.72;1.20;;;30.50;67.90;;;;;;1864047;74;21126;-68
2022/12/07 07:14:54;;;;;;;5.75;1.12;;;30.50;67.90;;;;;;1865539;75;21114;-68
2022/12/07 07:17:30;;;;;;;2.58;1.40;;;30.50;67.60;;;;;;1862940;75;21142;-69
2022/12/07 07:20:04;;;;;;;1.70;1.10;;;30.50;67.80;;;;;;1858772;75;21530;-70
2022/12/07 07:22:36;;;;;;;5.00;1.10;;;30.50;67.20;;;;;;1862892;75;21263;-71
2022/12/07 07:25:14;;;;;;;2.12;0.93;;;30.50;66.60;;;;;;1861543;76;21201;-70
2022/12/07 07:27:44;;;;;;;2.33;1.05;;;30.50;66.80;;;;;;1861686;75;21158;-70
2022/12/07 07:30:17;;;;;;;3.40;1.10;;;30.40;67.30;;;;;;1833261;77;21685;-70
2022/12/07 07:32:49;;;;;;;2.45;1.40;;;30.40;67.50;;;;;;1863046;75;21668;-70
2022/12/07 07:35:39;;;;;;;2.08;1.12;;;30.40;67.70;;;;;;1865001;75;21614;-69
2022/12/07 07:38:12;;;;;;;1.60;1.00;;;30.40;67.80;;;;;;1918922;73;21818;-69
2022/12/07 07:40:43;;;;;;;2.12;1.20;;;30.40;66.90;;;;;;1918755;73;21249;-70
2022/12/07 07:43:15;;;;;;;5.12;1.37;;;30.40;67.40;;;;;;1921145;73;21237;-70
2022/12/07 07:45:47;;;;;;;5.05;1.27;;;30.40;67.80;;;;;;1921876;73;21087;-70
2022/12/07 07:48:19;;;;;;;1.75;0.95;;;30.40;67.80;;;;;;1855646;76;21190;-69
2022/12/07 07:50:50;;;;;;;2.27;1.57;;;30.40;66.60;;;;;;1905600;73;21114;-70
2022/12/07 07:53:22;;;;;;;2.25;1.40;;;30.40;66.60;;;;;;1882852;75;21554;-71
2022/12/07 07:55:55;;;;;;;3.77;1.35;;;30.40;66.90;;;;;;1923469;73;21151;-71
2022/12/07 07:58:26;;;;;;;3.95;1.20;;;30.40;67.30;;;;;;1921157;73;21179;-72
2022/12/07 08:00:57;;;;;;;1.85;1.00;;;30.30;67.70;;;;;;1923293;73;21555;-71
2022/12/07 08:03:28;;;;;;;3.05;1.02;;;30.30;67.20;;;;;;1921423;73;21076;-71
2022/12/07 08:05:58;;;;;;;3.22;0.98;;;30.20;67.50;;;;;;1924962;73;22129;-71
2022/12/07 08:08:32;;;;;;;3.22;1.07;;;30.30;67.40;;;;;;1916818;73;21120;-71
2022/12/07 08:11:08;;;;;;;4.20;0.90;;;30.30;67.40;;;;;;1920303;73;21149;-71
2022/12/07 08:13:39;;;;;;;2.67;0.90;;;30.20;67.00;;;;;;1922542;73;21115;-71
2022/12/07 08:16:12;;;;;;;3.58;1.17;;;30.20;66.90;;;;;;1913974;73;21616;-70
2022/12/07 08:18:43;;;;;;;1.50;0.80;;;30.10;67.00;;;;;;1920365;73;21178;-70
2022/12/07 08:21:18;;;;;;;4.03;1.30;;;30.10;66.90;;;;;;1918720;73;21109;-69
2022/12/07 08:26:44;;;;;;;2.40;1.00;;;30.10;67.30;;;;;;1917947;73;21129;-70
2022/12/07 08:29:15;;;;;;;3.75;0.80;;;30.10;67.00;;;;;;1919912;74;21129;-70
2022/12/07 08:31:45;;;;;;;2.15;1.00;;;30.10;66.90;;;;;;1899218;74;21583;-71
2022/12/07 08:34:19;;;;;;;4.33;0.95;;;30.10;67.00;;;;;;1899223;74;21094;-71
2022/12/07 08:36:50;;;;;;;3.95;0.90;;;30.10;67.10;;;;;;1921065;73;21146;-69
2022/12/07 08:39:21;;;;;;;4.85;1.22;;;30.10;66.90;;;;;;1921977;73;21230;-71
2022/12/07 08:41:53;;;;;;;1.72;1.20;;;30.20;67.40;;;;;;1922141;73;21815;-72
2022/12/07 08:44:24;;;;;;;2.65;1.07;;;30.20;67.60;;;;;;1920945;73;21156;-71
2022/12/07 08:47:03;;;;;;;2.58;1.20;;;30.20;67.60;;;;;;1917332;73;21137;-71
2022/12/07 08:49:36;;;;;;;5.95;1.20;;;30.20;67.50;;;;;;1920476;73;21737;-70
2022/12/07 08:52:07;;;;;;;3.87;1.15;;;30.20;67.60;;;;;;1920947;73;21057;-72
2022/12/07 08:54:40;;;;;;;5.28;1.27;;;30.20;67.70;;;;;;1920776;73;22386;-70
2022/12/07 08:57:12;;;;;;;2.37;1.10;;;30.10;67.20;;;;;;1920181;73;21124;-70
2022/12/07 08:59:42;;;;;;;1.98;1.37;;;30.10;67.50;;;;;;1923784;73;21100;-70
2022/12/07 09:02:17;;;;;;;4.10;1.10;;;30.20;68.60;;;;;;1914776;73;21261;-71
2022/12/07 09:04:53;;;;;;;3.42;1.30;;;30.10;67.90;;;;;;1918402;73;21208;-71
2022/12/07 09:07:25;;;;;;;1.85;1.20;;;30.10;67.90;;;;;;1918141;73;21182;-70
2022/12/07 09:09:52;;;;;;;4.03;1.37;;;30.10;67.80;;;;;;1913260;73;21243;-70
2022/12/07 09:12:24;;;;;;;3.15;1.40;;;30.10;68.10;;;;;;1920529;73;21073;-71
2022/12/07 09:14:55;;;;;;;3.83;1.77;;;30.10;68.30;;;;;;1920322;73;21589;-72
2022/12/07 09:17:30;;;;;;;4.87;2.27;;;30.10;68.10;;;;;;1918375;73;21139;-70
2022/12/07 09:20:04;;;;;;;2.60;1.30;;;30.10;67.60;;;;;;1920308;73;21189;-70
2022/12/07 09:22:36;;;;;;;6.22;3.00;;;30.10;67.40;;;;;;1921552;73;21186;-72
2022/12/07 09:25:08;;;;;;;3.95;1.80;;;30.10;67.80;;;;;;1912618;73;21084;-70
2022/12/07 09:27:39;;;;;;;3.95;1.20;;;30.10;68.60;;;;;;1896894;73;21146;-70
2022/12/07 09:30:09;;;;;;;2.98;1.20;;;30.10;67.80;;;;;;1875655;74;21205;-72
2022/12/07 09:32:40;;;;;;;3.45;1.57;;;30.00;67.50;;;;;;1892627;74;21585;-70
2022/12/07 09:35:12;;;;;;;2.60;1.42;;;30.00;67.40;;;;;;1892943;74;21137;-72
2022/12/07 09:37:43;;;;;;;2.37;1.40;;;29.90;67.90;;;;;;1845134;76;21198;-70
2022/12/07 09:40:16;;;;;;;2.33;1.32;;;29.90;68.00;;;;;;1891839;74;21128;-70
2022/12/07 09:42:49;;;;;;;2.47;1.20;;;29.80;68.20;;;;;;1889864;74;21712;-72
2022/12/07 09:45:28;;;;;;;2.83;1.42;;;29.80;68.50;;;;;;1894171;73;21054;-70
2022/12/07 09:48:01;;;;;;;2.52;1.47;;;29.70;68.80;;;;;;1893724;73;21184;-70
2022/12/07 09:50:32;;;;;;;4.50;1.80;;;29.70;68.80;;;;;;1897262;74;21117;-72
2022/12/07 09:53:14;;;;;;;5.08;1.85;;;29.70;69.10;;;;;;1894819;74;21099;-69
2022/12/07 09:55:45;;;;;;;4.97;1.52;;;29.70;69.30;;;;;;1891630;74;21117;-69
2022/12/07 09:58:22;;;;;;;3.50;1.75;;;29.60;69.40;;;;;;1888336;74;21153;-70
2022/12/07 10:01:02;;;;;;;2.90;1.60;;;29.60;69.50;;;;;;1857938;76;21258;-71
2022/12/07 10:03:41;;;;;;;2.55;1.40;;;29.50;69.20;;;;;;1894075;74;21198;-71
2022/12/07 10:06:14;;;;;;;3.33;1.20;;;29.50;69.50;;;;;;1892267;74;21255;-71
2022/12/07 10:08:47;;;;;;;3.40;1.50;;;29.50;69.50;;;;;;1893005;74;21709;-69
2022/12/07 10:11:21;;;;;;;3.08;1.50;;;29.50;69.60;;;;;;1892985;74;21159;-71
2022/12/07 10:13:58;;;;;;;5.95;1.47;;;29.40;69.80;;;;;;1893671;74;21150;-71
2022/12/07 10:16:42;;;;;;;5.10;1.42;;;29.40;69.70;;;;;;1886266;74;21141;-71
2022/12/07 10:19:28;;;;;;;2.87;1.57;;;29.40;70.00;;;;;;1887686;74;21566;-69
2022/12/07 10:22:08;;;;;;;5.05;2.00;;;29.30;70.00;;;;;;1891371;74;21180;-71
2022/12/07 10:24:46;;;;;;;3.55;1.62;;;29.30;70.10;;;;;;1894005;74;21145;-71
2022/12/07 10:27:29;;;;;;;4.72;1.90;;;29.30;70.40;;;;;;1911880;73;21190;-68
2022/12/07 10:30:02;;;;;;;5.30;2.10;;;29.20;70.60;;;;;;1919359;73;21144;-69
2022/12/07 10:32:36;;;;;;;4.75;2.20;;;29.20;71.00;;;;;;1916472;73;21184;-70
2022/12/07 10:35:21;;;;;;;3.52;1.90;;;29.20;71.50;;;;;;1919720;73;21124;-71
2022/12/07 10:37:54;;;;;;;5.70;2.22;;;29.10;71.50;;;;;;1916752;73;21148;-70
2022/12/07 10:40:30;;;;;;;4.37;2.58;;;29.00;71.60;;;;;;1919696;73;21306;-71
2022/12/07 10:43:15;;;;;;;5.10;2.43;;;29.00;71.80;;;;;;1921147;73;21561;-71
2022/12/07 10:46:05;;;;;;;9.85;3.05;;;29.00;72.30;;;;;;1917692;73;21210;-70
2022/12/07 10:48:45;;;;;;;10.38;3.50;;;28.90;72.40;;;;;;1918921;73;21093;-70
2022/12/07 10:51:36;;;;;;;6.50;3.35;;;28.90;72.50;;;;;;1917291;73;21147;-71
2022/12/07 10:54:25;;;;;;;7.28;3.40;;;28.90;72.60;;;;;;1919707;73;21246;-70
2022/12/07 10:57:08;;;;;;;9.28;3.58;;;28.90;73.20;;;;;;1923370;73;21794;-71
2022/12/07 10:59:50;;;;;;;7.62;3.12;;;28.80;73.00;;;;;;1922658;73;21133;-72
2022/12/07 11:02:38;;;;;;;9.10;4.75;;;28.80;73.30;;;;;;1923198;73;21085;-71
2022/12/07 11:05:17;;;;;;;7.97;4.55;;;28.80;73.60;;;;;;1919096;73;21136;-70
2022/12/07 11:07:51;;;;;;;7.97;3.80;;;28.70;73.80;;;;;;1882284;74;21180;-70
2022/12/07 11:10:43;;;;;;;7.42;3.05;;;28.70;73.90;;;;;;1924191;73;21111;-71
2022/12/07 11:13:27;;;;;;;6.72;3.05;;;28.70;74.20;;;;;;1915895;73;21497;-71
2022/12/07 11:16:06;;;;;;;12.60;8.40;;;28.60;74.30;;;;;;1919324;73;21607;-69
2022/12/07 11:18:51;;;;;;;8.78;5.47;;;28.70;74.40;;;;;;1908118;73;21499;-70
2022/12/07 11:21:23;;;;;;;7.00;4.40;;;28.60;74.60;;;;;;1921210;73;21209;-70
2022/12/07 11:24:20;;;;;;;7.58;4.28;;;28.60;74.80;;;;;;1918280;73;21215;-70
2022/12/07 11:27:06;;;;;;;10.85;3.47;;;28.60;74.90;;;;;;1864474;75;21106;-69
2022/12/07 11:29:42;;;;;;;6.00;3.58;;;28.50;74.90;;;;;;1891662;74;21208;-70
2022/12/07 11:32:24;;;;;;;12.68;3.62;;;28.50;75.10;;;;;;1894495;74;21196;-70
2022/12/07 11:35:22;;;;;;;6.90;3.65;;;28.40;75.10;;;;;;1875722;75;21189;-70
2022/12/07 11:37:55;;;;;;;10.95;4.92;;;28.50;75.30;;;;;;1892512;74;21217;-70
2022/12/07 11:40:35;;;;;;;12.10;6.00;;;28.40;75.30;;;;;;1885958;74;21117;-71
2022/12/07 11:43:21;;;;;;;12.40;6.67;;;28.40;75.60;;;;;;1889649;74;21178;-69
2022/12/07 11:45:59;;;;;;;14.90;6.60;;;28.40;75.80;;;;;;1888247;74;21633;-70
2022/12/07 11:48:41;;;;;;;15.20;6.30;;;28.40;75.70;;;;;;1882108;74;21790;-69
2022/12/07 11:51:13;;;;;;;10.43;6.42;;;28.30;75.90;;;;;;1855551;75;21610;-70
2022/12/07 11:53:56;;;;;;;13.08;6.25;;;28.30;76.40;;;;;;1889827;74;21770;-70
2022/12/07 11:56:28;;;;;;;10.28;6.58;;;28.20;76.40;;;;;;1877690;74;21134;-69
2022/12/07 11:59:21;;;;;;;10.95;6.35;;;28.20;76.60;;;;;;1895713;73;21247;-70
2022/12/07 12:02:15;;;;;;;10.08;6.05;;;28.20;76.90;;;;;;1886486;74;21750;-71
2022/12/07 12:05:01;;;;;;;12.23;6.33;;;28.10;77.00;;;;;;1895230;74;21116;-70
2022/12/07 12:07:33;;;;;;;9.10;5.87;;;28.10;77.30;;;;;;1888719;74;21851;-71
2022/12/07 12:10:16;;;;;;;11.45;6.47;;;28.00;78.20;;;;;;1893635;74;21108;-69
2022/12/07 12:12:58;;;;;;;10.50;7.10;;;28.00;77.20;;;;;;1885886;74;21208;-69
2022/12/07 12:15:54;;;;;;;20.02;10.95;;;28.00;77.40;;;;;;1875195;74;21620;-71
2022/12/07 12:18:34;;;;;;;13.18;8.25;;;27.90;77.90;;;;;;1892652;74;21215;-69
2022/12/07 12:21:11;;;;;;;16.85;8.70;;;27.90;77.90;;;;;;1830908;77;22180;-70
2022/12/07 12:23:49;;;;;;;15.40;8.90;;;27.90;78.10;;;;;;1897388;74;21610;-70
2022/12/07 12:26:24;;;;;;;14.28;7.85;;;27.80;78.40;;;;;;1881649;74;21723;-71
2022/12/07 12:29:09;;;;;;;20.20;8.20;;;27.80;78.50;;;;;;1876701;74;21823;-70
2022/12/07 12:31:44;;;;;;;15.88;8.98;;;27.80;78.60;;;;;;1879307;74;21111;-70
2022/12/07 12:34:40;;;;;;;16.60;8.88;;;27.80;78.90;;;;;;1891912;74;21051;-70
2022/12/07 12:37:37;;;;;;;16.35;9.70;;;27.70;78.80;;;;;;1878584;73;21648;-70
2022/12/07 12:40:16;;;;;;;20.48;10.90;;;27.70;79.10;;;;;;1877648;74;21264;-70
2022/12/07 12:42:49;;;;;;;16.67;10.93;;;27.70;79.00;;;;;;1867822;74;21262;-69
2022/12/07 12:45:24;;;;;;;16.52;11.57;;;27.70;79.10;;;;;;1878489;74;21685;-71
2022/12/07 12:48:00;;;;;;;16.60;11.20;;;27.70;79.30;;;;;;1876775;74;21118;-70
2022/12/07 12:50:33;;;;;;;21.23;11.85;;;27.60;79.40;;;;;;1873680;74;21177;-70
2022/12/07 12:53:25;;;;;;;17.15;11.25;;;27.60;79.50;;;;;;1889220;74;21127;-71
2022/12/07 12:56:10;;;;;;;19.05;11.93;;;27.60;79.60;;;;;;1880232;74;21118;-69
2022/12/07 12:58:45;;;;;;;19.62;12.63;;;27.60;79.40;;;;;;1880848;74;21268;-71
2022/12/07 13:01:36;;;;;;;19.65;12.37;;;27.60;79.50;;;;;;1879450;74;21108;-71
2022/12/07 13:04:27;;;;;;;19.10;12.40;;;27.60;79.60;;;;;;1882672;74;21161;-71
2022/12/07 13:06:58;;;;;;;18.70;11.33;;;27.60;79.50;;;;;;1878148;74;21178;-70
2022/12/07 13:09:31;;;;;;;17.05;12.13;;;27.60;79.70;;;;;;1870168;75;21683;-71
2022/12/07 13:12:05;;;;;;;17.02;11.83;;;27.50;79.60;;;;;;1880302;74;21161;-70
2022/12/07 13:14:56;;;;;;;19.90;11.43;;;27.50;79.50;;;;;;1878573;74;21145;-70
2022/12/07 13:17:36;;;;;;;20.25;11.48;;;27.50;79.60;;;;;;1881946;74;21114;-71
2022/12/07 13:20:08;;;;;;;16.12;10.68;;;27.50;79.70;;;;;;1883892;74;21649;-70
2022/12/07 13:22:44;;;;;;;16.10;10.93;;;27.50;79.60;;;;;;1879162;74;21122;-70
2022/12/07 13:25:20;;;;;;;18.80;10.90;;;27.50;79.70;;;;;;1870579;73;21176;-71
2022/12/07 13:28:12;;;;;;;16.67;10.82;;;27.40;79.90;;;;;;1876952;74;21743;-69
2022/12/07 13:30:49;;;;;;;15.88;10.25;;;27.40;79.80;;;;;;1855634;75;21097;-70
2022/12/07 13:33:21;;;;;;;15.10;10.20;;;27.40;80.20;;;;;;1857122;75;21096;-70
2022/12/07 13:35:54;;;;;;;13.03;9.30;;;27.40;80.20;;;;;;1862650;75;21151;-70
2022/12/07 13:38:27;;;;;;;14.85;9.95;;;27.30;80.30;;;;;;1863125;75;21178;-70
2022/12/07 13:41:03;;;;;;;14.78;9.15;;;27.30;80.50;;;;;;1859766;75;21243;-70